sensor_id;sensor_type;location;lat;lon;timestamp;pressure;altitude;pressure_sealevel;temperature;humidity
3968;BME280;9221;42.646;23.380;2023-05-07T00:01:38;94746.22;;;12.57;75.21
3968;BME280;9221;42.646;23.380;2023-05-07T00:04:04;94743.97;;;12.70;74.90
3968;BME280;9221;42.646;23.380;2023-05-07T00:06:29;94737.25;;;12.49;75.48
3968;BME280;9221;42.646;23.380;2023-05-07T00:08:56;94675.88;;;12.03;75.96
3968;BME280;9221;42.646;23.380;2023-05-07T00:11:22;94749.25;;;12.70;76.05
3968;BME280;9221;42.646;23.380;2023-05-07T00:13:48;94684.69;;;12.55;74.82
3968;BME280;9221;42.646;23.380;2023-05-07T00:16:13;94820.16;;;12.66;74.50
3968;BME280;9221;42.646;23.380;2023-05-07T00:18:39;94673.09;;;12.05;75.47
3968;BME280;9221;42.646;23.380;2023-05-07T00:21:04;94751.50;;;12.57;76.22
3968;BME280;9221;42.646;23.380;2023-05-07T00:23:30;94753.22;;;12.66;75.98
3968;BME280;9221;42.646;23.380;2023-05-07T00:25:56;94776.25;;;12.82;75.95
3968;BME280;9221;42.646;23.380;2023-05-07T00:28:21;94740.56;;;12.51;75.87
3968;BME280;9221;42.646;23.380;2023-05-07T00:30:46;94758.78;;;12.28;77.54
3968;BME280;9221;42.646;23.380;2023-05-07T00:33:12;94771.16;;;12.19;78.05
3968;BME280;9221;42.646;23.380;2023-05-07T00:35:37;94740.03;;;12.13;78.20
3968;BME280;9221;42.646;23.380;2023-05-07T00:38:03;94754.53;;;12.09;78.42
3968;BME280;9221;42.646;23.380;2023-05-07T00:40:28;94688.09;;;11.33;79.73
3968;BME280;9221;42.646;23.380;2023-05-07T00:42:53;94702.78;;;11.54;80.44
3968;BME280;9221;42.646;23.380;2023-05-07T00:45:28;94667.84;;;11.42;80.22
3968;BME280;9221;42.646;23.380;2023-05-07T00:47:58;94697.72;;;11.25;81.17
3968;BME280;9221;42.646;23.380;2023-05-07T00:50:24;94766.53;;;11.77;81.99
3968;BME280;9221;42.646;23.380;2023-05-07T00:52:50;94761.00;;;11.71;81.46
3968;BME280;9221;42.646;23.380;2023-05-07T00:55:16;94685.53;;;11.06;80.81
3968;BME280;9221;42.646;23.380;2023-05-07T00:57:41;94737.88;;;11.10;81.81
3968;BME280;9221;42.646;23.380;2023-05-07T01:00:08;94755.66;;;11.08;82.96
3968;BME280;9221;42.646;23.380;2023-05-07T01:02:35;94736.59;;;10.96;82.81
3968;BME280;9221;42.646;23.380;2023-05-07T01:05:01;94777.06;;;11.05;83.40
3968;BME280;9221;42.646;23.380;2023-05-07T01:07:29;94808.00;;;10.85;84.44
3968;BME280;9221;42.646;23.380;2023-05-07T01:09:56;94583.53;;;9.59;85.13
3968;BME280;9221;42.646;23.380;2023-05-07T01:12:22;94749.78;;;10.69;85.05
3968;BME280;9221;42.646;23.380;2023-05-07T01:14:48;94815.25;;;10.83;84.68
3968;BME280;9221;42.646;23.380;2023-05-07T01:17:15;94754.53;;;10.65;85.40
3968;BME280;9221;42.646;23.380;2023-05-07T01:19:41;94770.53;;;10.81;85.29
3968;BME280;9221;42.646;23.380;2023-05-07T01:22:08;94743.75;;;10.58;85.96
3968;BME280;9221;42.646;23.380;2023-05-07T01:24:35;94696.78;;;10.34;86.41
3968;BME280;9221;42.646;23.380;2023-05-07T01:27:01;94752.00;;;10.73;86.14
3968;BME280;9221;42.646;23.380;2023-05-07T01:29:27;94752.47;;;10.59;86.19
3968;BME280;9221;42.646;23.380;2023-05-07T01:31:54;94682.84;;;10.52;85.96
3968;BME280;9221;42.646;23.380;2023-05-07T01:34:21;94758.19;;;11.00;85.95
3968;BME280;9221;42.646;23.380;2023-05-07T01:36:46;94672.72;;;10.47;86.09
3968;BME280;9221;42.646;23.380;2023-05-07T01:39:13;94749.31;;;11.01;85.83
3968;BME280;9221;42.646;23.380;2023-05-07T01:41:39;94621.44;;;10.31;85.39
3968;BME280;9221;42.646;23.380;2023-05-07T01:44:05;94669.66;;;10.52;86.11
3968;BME280;9221;42.646;23.380;2023-05-07T01:46:32;94734.38;;;10.92;87.23
3968;BME280;9221;42.646;23.380;2023-05-07T01:48:58;94725.94;;;11.06;87.29
3968;BME280;9221;42.646;23.380;2023-05-07T01:51:24;94821.72;;;11.16;88.01
3968;BME280;9221;42.646;23.380;2023-05-07T01:53:52;94746.59;;;11.29;87.25
3968;BME280;9221;42.646;23.380;2023-05-07T01:56:18;94778.44;;;11.45;87.55
3968;BME280;9221;42.646;23.380;2023-05-07T01:58:45;94723.63;;;11.39;86.79
3968;BME280;9221;42.646;23.380;2023-05-07T02:01:13;94662.06;;;11.21;86.22
3968;BME280;9221;42.646;23.380;2023-05-07T02:03:38;94735.28;;;11.55;85.70
3968;BME280;9221;42.646;23.380;2023-05-07T02:06:04;94726.06;;;11.59;86.16
3968;BME280;9221;42.646;23.380;2023-05-07T02:08:29;94647.03;;;10.95;86.15
3968;BME280;9221;42.646;23.380;2023-05-07T02:10:55;94671.75;;;10.94;86.43
3968;BME280;9221;42.646;23.380;2023-05-07T02:13:20;94645.28;;;10.86;86.48
3968;BME280;9221;42.646;23.380;2023-05-07T02:15:47;94718.44;;;11.11;88.10
3968;BME280;9221;42.646;23.380;2023-05-07T02:18:16;94686.28;;;10.98;88.10
3968;BME280;9221;42.646;23.380;2023-05-07T02:20:42;94691.81;;;10.59;88.79
3968;BME280;9221;42.646;23.380;2023-05-07T02:23:07;94703.72;;;10.91;89.19
3968;BME280;9221;42.646;23.380;2023-05-07T02:25:33;94695.09;;;10.89;89.17
3968;BME280;9221;42.646;23.380;2023-05-07T02:27:58;94507.78;;;9.80;88.81
3968;BME280;9221;42.646;23.380;2023-05-07T02:30:24;94728.38;;;11.17;88.25
3968;BME280;9221;42.646;23.380;2023-05-07T02:32:50;94699.56;;;11.24;87.79
3968;BME280;9221;42.646;23.380;2023-05-07T02:35:15;94744.34;;;11.34;87.40
3968;BME280;9221;42.646;23.380;2023-05-07T02:37:41;94712.31;;;11.47;86.74
3968;BME280;9221;42.646;23.380;2023-05-07T02:40:07;94749.31;;;11.37;86.56
3968;BME280;9221;42.646;23.380;2023-05-07T02:42:32;94643.53;;;10.94;86.91
3968;BME280;9221;42.646;23.380;2023-05-07T02:44:58;94642.19;;;10.90;86.73
3968;BME280;9221;42.646;23.380;2023-05-07T02:47:23;94712.59;;;10.90;88.23
3968;BME280;9221;42.646;23.380;2023-05-07T02:49:48;94711.16;;;10.77;88.89
3968;BME280;9221;42.646;23.380;2023-05-07T02:52:14;94648.78;;;10.40;89.85
3968;BME280;9221;42.646;23.380;2023-05-07T02:54:39;94643.84;;;10.55;89.36
3968;BME280;9221;42.646;23.380;2023-05-07T02:57:04;94687.78;;;10.82;88.43
3968;BME280;9221;42.646;23.380;2023-05-07T02:59:30;94757.06;;;10.84;88.96
3968;BME280;9221;42.646;23.380;2023-05-07T03:01:55;94719.88;;;10.78;90.07
3968;BME280;9221;42.646;23.380;2023-05-07T03:04:21;94686.84;;;10.56;90.70
3968;BME280;9221;42.646;23.380;2023-05-07T03:06:46;94723.63;;;10.75;91.02
3968;BME280;9221;42.646;23.380;2023-05-07T03:09:11;94720.56;;;10.80;91.32
3968;BME280;9221;42.646;23.380;2023-05-07T03:11:37;94728.03;;;10.84;91.32
3968;BME280;9221;42.646;23.380;2023-05-07T03:14:02;94746.00;;;10.99;91.25
3968;BME280;9221;42.646;23.380;2023-05-07T03:16:28;94730.84;;;11.01;90.89
3968;BME280;9221;42.646;23.380;2023-05-07T03:18:53;94672.84;;;10.73;91.10
3968;BME280;9221;42.646;23.380;2023-05-07T03:21:19;94653.63;;;10.63;90.50
3968;BME280;9221;42.646;23.380;2023-05-07T03:23:44;94740.91;;;11.15;90.58
3968;BME280;9221;42.646;23.380;2023-05-07T03:26:10;94769.53;;;11.10;90.49
3968;BME280;9221;42.646;23.380;2023-05-07T03:28:36;94718.84;;;10.89;91.29
3968;BME280;9221;42.646;23.380;2023-05-07T03:31:02;94606.00;;;10.19;91.53
3968;BME280;9221;42.646;23.380;2023-05-07T03:33:27;94673.59;;;10.83;91.46
3968;BME280;9221;42.646;23.380;2023-05-07T03:35:53;94695.03;;;11.16;90.73
3968;BME280;9221;42.646;23.380;2023-05-07T03:38:18;94655.13;;;10.65;91.10
3968;BME280;9221;42.646;23.380;2023-05-07T03:40:44;94668.41;;;10.74;91.32
3968;BME280;9221;42.646;23.380;2023-05-07T03:43:09;94600.06;;;10.44;91.73
3968;BME280;9221;42.646;23.380;2023-05-07T03:45:34;94609.91;;;10.60;91.22
3968;BME280;9221;42.646;23.380;2023-05-07T03:48:00;94802.53;;;11.42;90.53
3968;BME280;9221;42.646;23.380;2023-05-07T03:50:25;94734.56;;;11.44;90.67
3968;BME280;9221;42.646;23.380;2023-05-07T03:52:51;94682.81;;;11.15;90.33
3968;BME280;9221;42.646;23.380;2023-05-07T03:55:16;94776.16;;;11.68;90.26
3968;BME280;9221;42.646;23.380;2023-05-07T03:57:42;94836.84;;;11.42;90.28
3968;BME280;9221;42.646;23.380;2023-05-07T04:00:07;94763.97;;;11.49;90.85
3968;BME280;9221;42.646;23.380;2023-05-07T04:02:33;94775.97;;;11.62;90.29
3968;BME280;9221;42.646;23.380;2023-05-07T04:04:58;94679.69;;;11.38;89.74
3968;BME280;9221;42.646;23.380;2023-05-07T04:07:24;94753.84;;;11.99;89.21
3968;BME280;9221;42.646;23.380;2023-05-07T04:09:49;94768.50;;;12.19;87.67
3968;BME280;9221;42.646;23.380;2023-05-07T04:12:15;94698.53;;;11.61;88.01
3968;BME280;9221;42.646;23.380;2023-05-07T04:14:40;94776.13;;;12.23;87.95
3968;BME280;9221;42.646;23.380;2023-05-07T04:17:05;94782.31;;;12.13;87.49
3968;BME280;9221;42.646;23.380;2023-05-07T04:19:33;94787.19;;;12.00;88.31
3968;BME280;9221;42.646;23.380;2023-05-07T04:21:58;94721.41;;;11.52;89.33
3968;BME280;9221;42.646;23.380;2023-05-07T04:24:24;94793.66;;;11.88;89.64
3968;BME280;9221;42.646;23.380;2023-05-07T04:26:50;94743.28;;;11.63;89.53
3968;BME280;9221;42.646;23.380;2023-05-07T04:29:16;94784.31;;;11.93;89.48
3968;BME280;9221;42.646;23.380;2023-05-07T04:31:42;94787.63;;;12.13;88.69
3968;BME280;9221;42.646;23.380;2023-05-07T04:34:10;94728.81;;;12.11;87.89
3968;BME280;9221;42.646;23.380;2023-05-07T04:36:37;94814.44;;;12.79;86.53
3968;BME280;9221;42.646;23.380;2023-05-07T04:39:03;94787.81;;;12.20;86.21
3968;BME280;9221;42.646;23.380;2023-05-07T04:41:28;94834.22;;;12.67;86.91
3968;BME280;9221;42.646;23.380;2023-05-07T04:43:54;94813.34;;;12.56;87.14
3968;BME280;9221;42.646;23.380;2023-05-07T04:46:19;94627.59;;;11.40;86.64
3968;BME280;9221;42.646;23.380;2023-05-07T04:48:45;94765.53;;;12.23;87.64
3968;BME280;9221;42.646;23.380;2023-05-07T04:51:10;94857.22;;;12.66;87.86
3968;BME280;9221;42.646;23.380;2023-05-07T04:53:37;94826.59;;;12.64;87.13
3968;BME280;9221;42.646;23.380;2023-05-07T04:56:03;94752.78;;;12.44;87.50
3968;BME280;9221;42.646;23.380;2023-05-07T04:58:28;94795.03;;;13.05;86.55
3968;BME280;9221;42.646;23.380;2023-05-07T05:00:57;94890.75;;;13.27;85.17
3968;BME280;9221;42.646;23.380;2023-05-07T05:03:22;94749.22;;;13.21;84.22
3968;BME280;9221;42.646;23.380;2023-05-07T05:05:49;94796.22;;;13.86;82.83
3968;BME280;9221;42.646;23.380;2023-05-07T05:08:14;94746.50;;;13.80;81.72
3968;BME280;9221;42.646;23.380;2023-05-07T05:10:40;94842.75;;;14.38;79.91
3968;BME280;9221;42.646;23.380;2023-05-07T05:13:06;94753.06;;;14.34;78.63
3968;BME280;9221;42.646;23.380;2023-05-07T05:15:33;94737.50;;;14.22;77.18
3968;BME280;9221;42.646;23.380;2023-05-07T05:17:58;94787.56;;;14.26;79.33
3968;BME280;9221;42.646;23.380;2023-05-07T05:20:23;94743.16;;;14.19;78.99
3968;BME280;9221;42.646;23.380;2023-05-07T05:22:49;94800.44;;;14.62;77.90
3968;BME280;9221;42.646;23.380;2023-05-07T05:25:14;94805.69;;;14.86;77.65
3968;BME280;9221;42.646;23.380;2023-05-07T05:27:40;94803.69;;;14.97;76.41
3968;BME280;9221;42.646;23.380;2023-05-07T05:30:06;94760.91;;;14.83;75.80
3968;BME280;9221;42.646;23.380;2023-05-07T05:32:31;94813.50;;;15.28;75.14
3968;BME280;9221;42.646;23.380;2023-05-07T05:34:57;94807.19;;;15.29;74.96
3968;BME280;9221;42.646;23.380;2023-05-07T05:37:22;94818.06;;;15.42;74.97
3968;BME280;9221;42.646;23.380;2023-05-07T05:39:48;94743.50;;;15.12;74.52
3968;BME280;9221;42.646;23.380;2023-05-07T05:42:13;94814.84;;;15.55;74.28
3968;BME280;9221;42.646;23.380;2023-05-07T05:44:38;94756.75;;;15.20;74.27
3968;BME280;9221;42.646;23.380;2023-05-07T05:47:04;94801.94;;;15.12;75.35
3968;BME280;9221;42.646;23.380;2023-05-07T05:49:29;94804.38;;;15.53;74.50
3968;BME280;9221;42.646;23.380;2023-05-07T05:51:55;94757.09;;;15.17;74.88
3968;BME280;9221;42.646;23.380;2023-05-07T05:54:21;94797.16;;;15.62;74.72
3968;BME280;9221;42.646;23.380;2023-05-07T05:56:46;94797.25;;;15.77;74.15
3968;BME280;9221;42.646;23.380;2023-05-07T05:59:12;94818.59;;;15.92;73.70
3968;BME280;9221;42.646;23.380;2023-05-07T06:01:38;94843.66;;;15.98;73.41
3968;BME280;9221;42.646;23.380;2023-05-07T06:04:04;94753.47;;;15.65;72.88
3968;BME280;9221;42.646;23.380;2023-05-07T06:06:29;94852.66;;;15.97;72.90
3968;BME280;9221;42.646;23.380;2023-05-07T06:08:56;94910.41;;;16.11;73.10
3968;BME280;9221;42.646;23.380;2023-05-07T06:11:21;94786.50;;;15.94;72.77
3968;BME280;9221;42.646;23.380;2023-05-07T06:13:46;94816.59;;;16.17;72.79
3968;BME280;9221;42.646;23.380;2023-05-07T06:16:12;94833.56;;;16.16;72.27
3968;BME280;9221;42.646;23.380;2023-05-07T06:18:37;94880.09;;;16.20;71.76
3968;BME280;9221;42.646;23.380;2023-05-07T06:21:03;94846.94;;;16.46;71.42
3968;BME280;9221;42.646;23.380;2023-05-07T06:23:28;94823.19;;;16.45;71.41
3968;BME280;9221;42.646;23.380;2023-05-07T06:25:54;94761.00;;;16.22;71.64
3968;BME280;9221;42.646;23.380;2023-05-07T06:28:19;94792.41;;;16.27;72.17
3968;BME280;9221;42.646;23.380;2023-05-07T06:30:45;94719.34;;;16.15;71.39
3968;BME280;9221;42.646;23.380;2023-05-07T06:33:10;94873.44;;;16.63;71.19
3968;BME280;9221;42.646;23.380;2023-05-07T06:35:36;94735.31;;;16.30;70.78
3968;BME280;9221;42.646;23.380;2023-05-07T06:38:01;94764.16;;;16.41;70.51
3968;BME280;9221;42.646;23.380;2023-05-07T06:40:27;94795.94;;;16.87;70.10
3968;BME280;9221;42.646;23.380;2023-05-07T06:42:52;94797.59;;;16.88;69.64
3968;BME280;9221;42.646;23.380;2023-05-07T06:45:19;94741.66;;;16.73;69.45
3968;BME280;9221;42.646;23.380;2023-05-07T06:47:44;94772.91;;;16.95;69.24
3968;BME280;9221;42.646;23.380;2023-05-07T06:50:10;94744.41;;;16.80;69.07
3968;BME280;9221;42.646;23.380;2023-05-07T06:52:35;94734.78;;;16.79;68.47
3968;BME280;9221;42.646;23.380;2023-05-07T06:55:01;94843.44;;;16.99;68.44
3968;BME280;9221;42.646;23.380;2023-05-07T06:57:26;94738.06;;;16.81;67.48
3968;BME280;9221;42.646;23.380;2023-05-07T06:59:52;94777.94;;;17.04;67.73
3968;BME280;9221;42.646;23.380;2023-05-07T07:02:17;94776.53;;;17.23;67.69
3968;BME280;9221;42.646;23.380;2023-05-07T07:04:42;94756.25;;;17.22;66.80
3968;BME280;9221;42.646;23.380;2023-05-07T07:07:08;94802.34;;;17.38;66.38
3968;BME280;9221;42.646;23.380;2023-05-07T07:09:33;94721.72;;;17.14;65.98
3968;BME280;9221;42.646;23.380;2023-05-07T07:11:58;94749.41;;;17.35;65.64
3968;BME280;9221;42.646;23.380;2023-05-07T07:14:24;94703.69;;;17.16;65.65
3968;BME280;9221;42.646;23.380;2023-05-07T07:16:49;94730.47;;;17.30;65.70
3968;BME280;9221;42.646;23.380;2023-05-07T07:19:15;94795.13;;;17.53;65.72
3968;BME280;9221;42.646;23.380;2023-05-07T07:21:41;94762.16;;;17.39;65.38
3968;BME280;9221;42.646;23.380;2023-05-07T07:24:06;94717.53;;;17.27;65.71
3968;BME280;9221;42.646;23.380;2023-05-07T07:26:32;94682.81;;;17.20;65.56
3968;BME280;9221;42.646;23.380;2023-05-07T07:28:57;94661.44;;;17.13;65.37
3968;BME280;9221;42.646;23.380;2023-05-07T07:31:23;94709.31;;;17.43;65.21
3968;BME280;9221;42.646;23.380;2023-05-07T07:33:48;94750.69;;;17.82;65.37
3968;BME280;9221;42.646;23.380;2023-05-07T07:36:15;94778.38;;;17.96;65.57
3968;BME280;9221;42.646;23.380;2023-05-07T07:38:41;94785.00;;;18.07;65.07
3968;BME280;9221;42.646;23.380;2023-05-07T07:41:08;94715.00;;;17.83;64.58
3968;BME280;9221;42.646;23.380;2023-05-07T07:43:34;94753.50;;;18.17;64.48
3968;BME280;9221;42.646;23.380;2023-05-07T07:46:00;94745.22;;;18.12;64.10
3968;BME280;9221;42.646;23.380;2023-05-07T07:48:26;94785.81;;;18.51;63.95
3968;BME280;9221;42.646;23.380;2023-05-07T07:50:51;94787.97;;;18.69;63.31
3968;BME280;9221;42.646;23.380;2023-05-07T07:53:17;94783.03;;;18.72;63.27
3968;BME280;9221;42.646;23.380;2023-05-07T07:55:42;94823.81;;;18.81;63.47
3968;BME280;9221;42.646;23.380;2023-05-07T07:58:08;94779.16;;;19.03;63.39
3968;BME280;9221;42.646;23.380;2023-05-07T08:00:33;94729.41;;;19.09;61.75
3968;BME280;9221;42.646;23.380;2023-05-07T08:02:58;94728.91;;;19.47;59.76
3968;BME280;9221;42.646;23.380;2023-05-07T08:05:24;94801.72;;;19.98;58.15
3968;BME280;9221;42.646;23.380;2023-05-07T08:07:50;94751.06;;;20.16;57.35
3968;BME280;9221;42.646;23.380;2023-05-07T08:10:17;94763.78;;;20.68;55.17
3968;BME280;9221;42.646;23.380;2023-05-07T08:12:47;94726.06;;;20.76;54.57
3968;BME280;9221;42.646;23.380;2023-05-07T08:15:13;94779.25;;;21.44;54.45
3968;BME280;9221;42.646;23.380;2023-05-07T08:17:38;94771.72;;;21.73;53.67
3968;BME280;9221;42.646;23.380;2023-05-07T08:20:04;94773.59;;;22.05;52.97
3968;BME280;9221;42.646;23.380;2023-05-07T08:22:30;94702.28;;;21.84;52.60
3968;BME280;9221;42.646;23.380;2023-05-07T08:24:55;94717.69;;;22.20;52.15
3968;BME280;9221;42.646;23.380;2023-05-07T08:27:21;94773.53;;;22.69;49.91
3968;BME280;9221;42.646;23.380;2023-05-07T08:29:46;94759.53;;;23.04;49.86
3968;BME280;9221;42.646;23.380;2023-05-07T08:32:13;94764.66;;;22.87;48.91
3968;BME280;9221;42.646;23.380;2023-05-07T08:34:38;94795.66;;;22.89;48.56
3968;BME280;9221;42.646;23.380;2023-05-07T08:37:04;94773.44;;;23.38;48.81
3968;BME280;9221;42.646;23.380;2023-05-07T08:39:29;94771.56;;;23.87;47.86
3968;BME280;9221;42.646;23.380;2023-05-07T08:41:55;94788.03;;;23.79;45.02
3968;BME280;9221;42.646;23.380;2023-05-07T08:44:26;94695.47;;;23.61;45.84
3968;BME280;9221;42.646;23.380;2023-05-07T08:46:53;94706.44;;;24.32;44.08
3968;BME280;9221;42.646;23.380;2023-05-07T08:49:21;94686.16;;;24.65;42.78
3968;BME280;9221;42.646;23.380;2023-05-07T08:51:46;94715.41;;;25.33;42.20
3968;BME280;9221;42.646;23.380;2023-05-07T08:54:15;94744.97;;;25.97;41.04
3968;BME280;9221;42.646;23.380;2023-05-07T08:56:41;94745.94;;;26.37;39.96
3968;BME280;9221;42.646;23.380;2023-05-07T08:59:06;94749.56;;;26.43;38.52
3968;BME280;9221;42.646;23.380;2023-05-07T09:01:32;94726.44;;;26.52;38.36
3968;BME280;9221;42.646;23.380;2023-05-07T09:03:58;94701.69;;;26.43;38.29
3968;BME280;9221;42.646;23.380;2023-05-07T09:06:23;94729.22;;;26.57;38.19
3968;BME280;9221;42.646;23.380;2023-05-07T09:08:54;94743.16;;;26.83;36.30
3968;BME280;9221;42.646;23.380;2023-05-07T09:11:23;94686.44;;;26.20;36.54
3968;BME280;9221;42.646;23.380;2023-05-07T09:13:53;94643.78;;;25.30;37.96
3968;BME280;9221;42.646;23.380;2023-05-07T09:16:20;94728.53;;;25.41;37.92
3968;BME280;9221;42.646;23.380;2023-05-07T09:18:46;94722.03;;;24.78;38.69
3968;BME280;9221;42.646;23.380;2023-05-07T09:21:16;94709.34;;;24.07;39.34
3968;BME280;9221;42.646;23.380;2023-05-07T09:23:42;94755.91;;;24.50;39.71
3968;BME280;9221;42.646;23.380;2023-05-07T09:26:08;94727.41;;;24.30;39.85
3968;BME280;9221;42.646;23.380;2023-05-07T09:28:42;94733.66;;;24.66;39.95
3968;BME280;9221;42.646;23.380;2023-05-07T09:31:09;94614.53;;;24.70;38.11
3968;BME280;9221;42.646;23.380;2023-05-07T09:33:34;94722.41;;;24.70;38.10
3968;BME280;9221;42.646;23.380;2023-05-07T09:36:08;94716.84;;;23.75;39.58
3968;BME280;9221;42.646;23.380;2023-05-07T09:38:35;94713.94;;;23.58;39.39
3968;BME280;9221;42.646;23.380;2023-05-07T09:41:06;94708.06;;;23.49;40.32
3968;BME280;9221;42.646;23.380;2023-05-07T09:43:33;94715.13;;;23.50;40.14
3968;BME280;9221;42.646;23.380;2023-05-07T09:46:02;94737.91;;;23.47;39.98
3968;BME280;9221;42.646;23.380;2023-05-07T09:48:29;94671.00;;;23.93;39.59
3968;BME280;9221;42.646;23.380;2023-05-07T09:50:55;94559.13;;;23.55;39.36
3968;BME280;9221;42.646;23.380;2023-05-07T09:53:24;94669.28;;;25.34;37.98
3968;BME280;9221;42.646;23.380;2023-05-07T09:55:51;94649.72;;;25.90;35.80
3968;BME280;9221;42.646;23.380;2023-05-07T09:58:18;94699.16;;;26.54;34.00
3968;BME280;9221;42.646;23.380;2023-05-07T10:00:44;94700.66;;;26.66;33.12
3968;BME280;9221;42.646;23.380;2023-05-07T10:03:11;94700.13;;;27.03;33.12
3968;BME280;9221;42.646;23.380;2023-05-07T10:05:38;94653.28;;;26.81;32.60
3968;BME280;9221;42.646;23.380;2023-05-07T10:08:04;94698.88;;;26.72;33.74
3968;BME280;9221;42.646;23.380;2023-05-07T10:10:32;94705.00;;;27.46;33.47
3968;BME280;9221;42.646;23.380;2023-05-07T10:12:58;94679.50;;;27.42;32.15
3968;BME280;9221;42.646;23.380;2023-05-07T10:15:24;94702.34;;;27.29;31.20
3968;BME280;9221;42.646;23.380;2023-05-07T10:17:51;94629.81;;;27.09;32.92
3968;BME280;9221;42.646;23.380;2023-05-07T10:20:18;94718.72;;;28.11;31.62
3968;BME280;9221;42.646;23.380;2023-05-07T10:22:46;94644.78;;;28.26;31.08
3968;BME280;9221;42.646;23.380;2023-05-07T10:27:47;94627.28;;;28.44;29.92
3968;BME280;9221;42.646;23.380;2023-05-07T10:33:24;94579.22;;;27.09;29.32
3968;BME280;9221;42.646;23.380;2023-05-07T10:35:50;94684.03;;;27.14;30.36
3968;BME280;9221;42.646;23.380;2023-05-07T10:38:16;94613.94;;;26.73;30.86
3968;BME280;9221;42.646;23.380;2023-05-07T10:40:42;94650.22;;;26.94;31.46
3968;BME280;9221;42.646;23.380;2023-05-07T10:43:08;94627.66;;;27.33;31.00
3968;BME280;9221;42.646;23.380;2023-05-07T10:45:34;94658.53;;;27.86;29.99
3968;BME280;9221;42.646;23.380;2023-05-07T10:48:16;94647.59;;;28.41;30.01
3968;BME280;9221;42.646;23.380;2023-05-07T10:50:43;94648.88;;;28.28;30.84
3968;BME280;9221;42.646;23.380;2023-05-07T10:55:47;94602.06;;;26.96;30.82
3968;BME280;9221;42.646;23.380;2023-05-07T10:58:27;94647.91;;;27.52;30.86
3968;BME280;9221;42.646;23.380;2023-05-07T11:00:57;94552.72;;;27.71;29.50
3968;BME280;9221;42.646;23.380;2023-05-07T11:03:24;94639.72;;;28.40;28.96
3968;BME280;9221;42.646;23.380;2023-05-07T11:11:17;94653.25;;;28.72;29.26
3968;BME280;9221;42.646;23.380;2023-05-07T11:13:46;94612.59;;;28.82;27.87
3968;BME280;9221;42.646;23.380;2023-05-07T11:16:22;94639.97;;;28.00;29.64
3968;BME280;9221;42.646;23.380;2023-05-07T11:18:54;94684.91;;;26.07;32.48
3968;BME280;9221;42.646;23.380;2023-05-07T11:24:01;94638.69;;;26.09;32.14
3968;BME280;9221;42.646;23.380;2023-05-07T11:26:29;94601.16;;;26.68;31.85
3968;BME280;9221;42.646;23.380;2023-05-07T11:28:55;94625.25;;;27.14;30.55
3968;BME280;9221;42.646;23.380;2023-05-07T11:31:25;94566.91;;;26.57;30.76
3968;BME280;9221;42.646;23.380;2023-05-07T11:33:52;94572.16;;;27.08;31.00
3968;BME280;9221;42.646;23.380;2023-05-07T11:36:18;94638.84;;;28.29;29.24
3968;BME280;9221;42.646;23.380;2023-05-07T11:38:43;94586.13;;;28.57;27.57
3968;BME280;9221;42.646;23.380;2023-05-07T11:41:09;94603.00;;;28.64;27.43
3968;BME280;9221;42.646;23.380;2023-05-07T11:43:35;94576.88;;;28.53;28.50
3968;BME280;9221;42.646;23.380;2023-05-07T11:46:09;94565.78;;;29.33;27.30
3968;BME280;9221;42.646;23.380;2023-05-07T11:48:35;94623.47;;;29.77;26.45
3968;BME280;9221;42.646;23.380;2023-05-07T11:51:02;94635.97;;;29.78;26.39
3968;BME280;9221;42.646;23.380;2023-05-07T11:53:36;94622.97;;;29.85;25.92
3968;BME280;9221;42.646;23.380;2023-05-07T11:56:22;94630.56;;;29.88;26.84
3968;BME280;9221;42.646;23.380;2023-05-07T11:58:48;94639.28;;;30.00;26.10
3968;BME280;9221;42.646;23.380;2023-05-07T12:01:14;94569.66;;;29.74;26.34
3968;BME280;9221;42.646;23.380;2023-05-07T12:03:42;94629.75;;;30.08;26.30
3968;BME280;9221;42.646;23.380;2023-05-07T12:06:09;94637.06;;;30.59;25.83
3968;BME280;9221;42.646;23.380;2023-05-07T12:08:38;94628.34;;;30.72;25.87
3968;BME280;9221;42.646;23.380;2023-05-07T12:11:07;94597.41;;;29.91;26.17
3968;BME280;9221;42.646;23.380;2023-05-07T12:13:33;94554.44;;;30.09;26.93
3968;BME280;9221;42.646;23.380;2023-05-07T12:15:58;94551.66;;;30.45;25.88
3968;BME280;9221;42.646;23.380;2023-05-07T12:18:24;94560.72;;;30.95;25.61
3968;BME280;9221;42.646;23.380;2023-05-07T12:20:50;94506.19;;;30.45;24.65
3968;BME280;9221;42.646;23.380;2023-05-07T12:23:16;94604.97;;;30.61;25.41
3968;BME280;9221;42.646;23.380;2023-05-07T12:25:43;94579.72;;;30.09;25.50
3968;BME280;9221;42.646;23.380;2023-05-07T12:28:13;94611.38;;;28.63;27.06
3968;BME280;9221;42.646;23.380;2023-05-07T12:30:42;94583.84;;;27.68;28.52
3968;BME280;9221;42.646;23.380;2023-05-07T12:33:07;94592.59;;;28.08;28.54
3968;BME280;9221;42.646;23.380;2023-05-07T12:35:39;94526.59;;;28.98;27.77
3968;BME280;9221;42.646;23.380;2023-05-07T12:38:09;94603.91;;;30.05;26.94
3968;BME280;9221;42.646;23.380;2023-05-07T12:40:36;94582.09;;;30.67;25.42
3968;BME280;9221;42.646;23.380;2023-05-07T12:43:02;94523.81;;;30.63;24.40
3968;BME280;9221;42.646;23.380;2023-05-07T12:45:27;94573.72;;;31.14;24.86
3968;BME280;9221;42.646;23.380;2023-05-07T12:47:52;94509.06;;;30.80;24.38
3968;BME280;9221;42.646;23.380;2023-05-07T12:50:18;94533.84;;;31.33;24.87
3968;BME280;9221;42.646;23.380;2023-05-07T12:52:48;94427.66;;;31.18;24.82
3968;BME280;9221;42.646;23.380;2023-05-07T12:55:14;94573.06;;;32.17;23.56
3968;BME280;9221;42.646;23.380;2023-05-07T12:57:43;94526.94;;;31.81;24.06
3968;BME280;9221;42.646;23.380;2023-05-07T13:00:09;94532.03;;;31.63;22.93
3968;BME280;9221;42.646;23.380;2023-05-07T13:02:38;94510.94;;;28.58;26.13
3968;BME280;9221;42.646;23.380;2023-05-07T13:05:04;94573.59;;;28.51;27.02
3968;BME280;9221;42.646;23.380;2023-05-07T13:07:29;94547.28;;;29.25;25.83
3968;BME280;9221;42.646;23.380;2023-05-07T13:09:54;94537.31;;;29.98;25.52
3968;BME280;9221;42.646;23.380;2023-05-07T13:12:20;94491.78;;;30.45;24.79
3968;BME280;9221;42.646;23.380;2023-05-07T13:14:46;94542.38;;;30.56;24.40
3968;BME280;9221;42.646;23.380;2023-05-07T13:17:11;94518.41;;;30.58;25.58
3968;BME280;9221;42.646;23.380;2023-05-07T13:19:36;94491.91;;;29.62;24.34
3968;BME280;9221;42.646;23.380;2023-05-07T13:22:03;94482.94;;;29.31;24.79